Time;durP1;ratioP1;P1;durP2;ratioP2;P2;SDS_P1;SDS_P2;PMS_P1;PMS_P2;Temp;Humidity;BMP_temperature;BMP_pressure;BME280_temperature;BME280_humidity;BME280_pressure;Samples;Min_cycle;Max_cycle;Signal;HPM_P1;HPM_P2
2021/06/04 00:00:15;;;;;;;18.38;12.07;;;18.80;99.90;;;;;;5021991;28;20037;-73
2021/06/04 00:02:44;;;;;;;22.42;12.20;;;18.90;99.90;;;;;;5013289;28;20044;-73
2021/06/04 00:08:14;;;;;;;17.73;12.95;;;18.80;99.90;;;;;;5001806;28;20033;-72
2021/06/04 00:10:43;;;;;;;16.63;12.25;;;18.80;99.90;;;;;;5006290;28;20064;-74
2021/06/04 00:13:23;;;;;;;19.25;12.15;;;18.80;99.90;;;;;;5011693;28;20407;-74
2021/06/04 00:16:01;;;;;;;14.57;10.88;;;18.70;99.90;;;;;;5005945;28;20061;-73
2021/06/04 00:18:29;;;;;;;15.77;12.25;;;18.80;99.90;;;;;;5007408;28;20053;-72
2021/06/04 00:20:58;;;;;;;14.85;12.27;;;18.80;99.90;;;;;;5002305;28;20033;-73
2021/06/04 00:23:23;;;;;;;17.50;12.77;;;18.80;99.90;;;;;;4993732;28;20499;-74
2021/06/04 00:25:49;;;;;;;16.23;11.95;;;18.80;99.90;;;;;;4996219;28;20073;-74
2021/06/04 00:28:15;;;;;;;16.77;13.02;;;18.70;99.90;;;;;;5000431;28;20026;-73
2021/06/04 00:30:41;;;;;;;19.83;12.85;;;18.80;99.90;;;;;;5011934;28;20049;-74
2021/06/04 00:33:06;;;;;;;20.17;13.07;;;18.80;99.90;;;;;;5005569;28;20021;-71
2021/06/04 00:35:35;;;;;;;15.13;13.25;;;18.80;99.90;;;;;;5004493;28;20072;-71
2021/06/04 00:38:01;;;;;;;18.33;13.48;;;18.70;99.90;;;;;;5000833;28;20535;-72
2021/06/04 00:40:32;;;;;;;19.17;12.75;;;18.70;99.90;;;;;;5002840;28;20026;-72
2021/06/04 00:42:58;;;;;;;22.92;14.18;;;18.60;99.90;;;;;;4996955;28;20062;-74
2021/06/04 00:45:29;;;;;;;19.75;14.15;;;18.50;99.90;;;;;;4999982;28;20045;-74
2021/06/04 00:47:56;;;;;;;20.35;14.55;;;18.40;99.90;;;;;;4998340;28;20027;-74
2021/06/04 00:50:32;;;;;;;21.30;13.95;;;18.50;99.90;;;;;;5001222;28;20082;-73
2021/06/04 00:52:59;;;;;;;20.83;13.57;;;18.50;99.90;;;;;;4992665;28;20079;-72
2021/06/04 00:55:26;;;;;;;17.65;13.23;;;18.50;99.90;;;;;;4998903;28;20463;-73
2021/06/04 00:57:52;;;;;;;20.90;15.02;;;18.50;99.90;;;;;;5007617;28;20054;-71
2021/06/04 01:00:43;;;;;;;23.63;13.82;;;18.40;99.90;;;;;;5000918;28;20038;-73
2021/06/04 01:03:11;;;;;;;22.30;14.95;;;18.20;99.90;;;;;;5000509;28;20023;-72
2021/06/04 01:05:40;;;;;;;22.38;14.45;;;17.90;99.90;;;;;;5003533;28;20014;-73
2021/06/04 01:08:38;;;;;;;25.02;14.07;;;17.90;99.90;;;;;;5006016;28;20052;-71
2021/06/04 01:11:30;;;;;;;21.38;13.52;;;18.00;99.90;;;;;;5003928;28;20558;-73
2021/06/04 01:14:09;;;;;;;25.30;14.52;;;17.80;99.90;;;;;;4997576;28;20052;-72
2021/06/04 01:17:03;;;;;;;21.60;14.60;;;17.70;99.90;;;;;;4996674;28;20034;-73
2021/06/04 01:19:44;;;;;;;22.40;13.88;;;17.60;99.90;;;;;;4995332;28;20023;-73
2021/06/04 01:22:29;;;;;;;22.98;13.75;;;17.70;99.90;;;;;;4997402;28;20250;-74
2021/06/04 01:25:37;;;;;;;23.98;14.63;;;17.70;99.90;;;;;;5004147;28;20117;-73
2021/06/04 01:28:22;;;;;;;34.47;15.77;;;17.60;99.90;;;;;;5000851;28;20029;-71
2021/06/04 01:30:53;;;;;;;26.30;13.95;;;17.40;99.90;;;;;;4995268;28;20022;-74
2021/06/04 01:33:26;;;;;;;28.10;16.33;;;17.40;99.90;;;;;;4999243;28;20084;-72
2021/06/04 01:35:55;;;;;;;26.20;15.32;;;17.30;99.90;;;;;;4997867;28;20492;-74
2021/06/04 01:38:27;;;;;;;29.40;14.38;;;17.50;99.90;;;;;;5003416;28;20030;-73
2021/06/04 01:40:57;;;;;;;23.17;15.83;;;17.60;99.90;;;;;;4989811;28;20117;-73
2021/06/04 01:43:36;;;;;;;26.75;14.93;;;17.70;99.90;;;;;;5001184;28;20029;-71
2021/06/04 01:46:08;;;;;;;31.42;17.25;;;17.60;99.90;;;;;;5001499;28;20080;-74
2021/06/04 01:48:38;;;;;;;26.20;16.58;;;17.50;99.90;;;;;;5001114;28;20033;-73
2021/06/04 01:51:17;;;;;;;26.90;14.77;;;17.50;99.90;;;;;;5003296;28;20044;-74
2021/06/04 01:53:52;;;;;;;28.45;15.90;;;17.70;99.90;;;;;;4999500;28;20033;-73
2021/06/04 01:56:30;;;;;;;28.67;17.02;;;17.60;99.90;;;;;;4993925;28;20042;-74
2021/06/04 01:59:04;;;;;;;31.05;16.88;;;17.60;99.90;;;;;;5006878;28;20014;-73
2021/06/04 02:02:02;;;;;;;28.52;17.05;;;17.50;99.90;;;;;;5022116;28;20113;-72
2021/06/04 02:04:56;;;;;;;26.48;16.20;;;17.60;99.90;;;;;;5035777;28;20050;-73
2021/06/04 02:07:37;;;;;;;30.65;17.02;;;17.60;99.90;;;;;;5029832;28;20089;-73
2021/06/04 02:10:08;;;;;;;23.50;16.88;;;17.50;99.90;;;;;;5016745;28;20014;-74
2021/06/04 02:12:34;;;;;;;24.83;17.45;;;17.50;99.90;;;;;;5019002;28;20029;-74
2021/06/04 02:15:10;;;;;;;29.85;17.85;;;17.40;99.90;;;;;;4996557;28;20038;-73
2021/06/04 02:17:48;;;;;;;27.30;16.45;;;17.50;99.90;;;;;;5002871;28;20026;-73
2021/06/04 02:20:20;;;;;;;31.05;16.98;;;17.50;99.90;;;;;;5003939;28;20030;-74
2021/06/04 02:23:10;;;;;;;30.40;17.75;;;17.30;99.90;;;;;;5001810;28;20161;-73
2021/06/04 02:26:00;;;;;;;32.17;17.65;;;17.30;99.90;;;;;;5004660;28;20014;-73
2021/06/04 02:28:35;;;;;;;29.40;18.10;;;17.10;99.90;;;;;;5030601;28;20081;-73
2021/06/04 02:31:10;;;;;;;30.85;17.20;;;17.10;99.90;;;;;;5019689;28;20034;-73
2021/06/04 02:33:49;;;;;;;29.85;18.58;;;17.20;99.90;;;;;;5000395;28;20386;-73
2021/06/04 02:36:40;;;;;;;33.00;17.92;;;17.30;99.90;;;;;;5002962;28;20266;-72
2021/06/04 02:39:30;;;;;;;34.03;19.52;;;17.30;99.90;;;;;;4999856;28;20105;-72
2021/06/04 02:42:05;;;;;;;29.05;18.63;;;17.10;99.90;;;;;;5003330;28;20307;-74
2021/06/04 02:44:40;;;;;;;33.13;19.90;;;17.20;99.90;;;;;;5009388;28;20280;-74
2021/06/04 02:47:20;;;;;;;32.75;20.90;;;17.20;99.90;;;;;;5022415;28;20077;-73
2021/06/04 02:49:46;;;;;;;34.95;19.50;;;17.20;99.90;;;;;;5011367;28;20054;-72
2021/06/04 02:52:31;;;;;;;37.13;19.77;;;17.30;99.90;;;;;;5022954;28;20041;-73
2021/06/04 02:54:59;;;;;;;36.72;20.30;;;17.30;99.90;;;;;;5017871;28;20029;-74
2021/06/04 02:57:30;;;;;;;36.28;22.10;;;17.10;99.90;;;;;;5020062;28;20030;-73
2021/06/04 02:59:58;;;;;;;34.80;21.02;;;17.00;99.90;;;;;;5021904;28;20042;-74
2021/06/04 03:02:30;;;;;;;36.67;21.00;;;16.90;99.90;;;;;;5017419;28;20061;-74
2021/06/04 03:05:15;;;;;;;31.38;18.90;;;17.00;99.90;;;;;;5012170;28;20769;-72
2021/06/04 03:07:42;;;;;;;40.22;20.88;;;17.20;99.90;;;;;;4994441;28;20038;-74
2021/06/04 03:10:14;;;;;;;34.95;20.88;;;17.10;99.90;;;;;;5006456;28;20434;-74
2021/06/04 03:12:43;;;;;;;;;;;17.10;99.90;;;;;;5010965;28;20026;-73
2021/06/04 03:15:20;;;;;;;41.75;23.27;;;17.20;99.90;;;;;;5008917;28;19973;-75
2021/06/04 03:17:46;;;;;;;42.42;22.10;;;17.20;99.90;;;;;;4991657;28;20022;-73
2021/06/04 03:20:16;;;;;;;39.22;21.02;;;17.30;99.90;;;;;;5006707;28;20038;-74
2021/06/04 03:22:43;;;;;;;40.55;22.15;;;17.30;99.90;;;;;;5003600;28;20022;-72
2021/06/04 03:25:19;;;;;;;43.58;23.00;;;17.20;99.90;;;;;;4997040;28;20106;-73
2021/06/04 03:27:47;;;;;;;35.70;19.88;;;17.00;99.90;;;;;;5002074;28;20225;-73
2021/06/04 03:30:16;;;;;;;39.15;22.33;;;16.90;99.90;;;;;;5001276;28;20102;-72
2021/06/04 03:32:43;;;;;;;35.85;22.10;;;16.90;99.90;;;;;;4999948;28;20033;-74
2021/06/04 03:35:10;;;;;;;37.65;20.65;;;16.90;99.90;;;;;;5001490;28;20031;-75
2021/06/04 03:37:36;;;;;;;35.10;21.17;;;16.90;99.90;;;;;;5002836;28;20030;-76
2021/06/04 03:40:05;;;;;;;35.17;21.48;;;17.00;99.90;;;;;;4999415;28;20027;-75
2021/06/04 03:42:31;;;;;;;35.38;21.85;;;17.00;99.90;;;;;;4996278;28;20026;-75
2021/06/04 03:44:57;;;;;;;37.67;21.23;;;17.00;99.90;;;;;;4997630;28;20048;-73
2021/06/04 03:47:23;;;;;;;40.58;23.27;;;17.00;99.90;;;;;;4992386;28;20640;-71
2021/06/04 03:49:49;;;;;;;44.63;24.77;;;16.90;99.90;;;;;;4996906;28;20050;-72
2021/06/04 03:52:20;;;;;;;39.47;22.58;;;16.80;99.90;;;;;;4994394;28;20530;-73
2021/06/04 03:54:48;;;;;;;36.20;21.50;;;16.90;99.90;;;;;;4999964;28;20117;-75
2021/06/04 03:57:19;;;;;;;37.72;22.63;;;16.90;99.90;;;;;;4999864;28;20431;-72
2021/06/04 03:59:55;;;;;;;41.42;22.95;;;17.00;99.90;;;;;;5003828;28;20081;-73
2021/06/04 04:02:35;;;;;;;47.25;24.85;;;16.80;99.90;;;;;;5016225;28;20029;-73
2021/06/04 04:05:07;;;;;;;41.72;23.17;;;16.90;99.90;;;;;;5029710;28;20125;-74
2021/06/04 04:07:42;;;;;;;43.92;23.83;;;16.90;99.90;;;;;;5014609;28;20026;-75
2021/06/04 04:10:10;;;;;;;50.25;24.58;;;16.90;99.90;;;;;;5019301;28;20054;-73
2021/06/04 04:12:36;;;;;;;40.28;22.98;;;16.90;99.90;;;;;;5007179;28;20082;-73
2021/06/04 04:15:04;;;;;;;45.25;25.52;;;16.90;99.90;;;;;;5014152;28;20026;-71
2021/06/04 04:17:30;;;;;;;47.47;24.98;;;16.90;99.90;;;;;;5004530;28;20088;-73
2021/06/04 04:19:57;;;;;;;40.50;22.15;;;17.00;99.90;;;;;;5009545;28;20569;-74
2021/06/04 04:22:24;;;;;;;36.75;22.63;;;17.10;99.90;;;;;;4999095;28;20072;-74
2021/06/04 04:24:51;;;;;;;37.50;23.00;;;17.30;99.90;;;;;;5008004;28;20017;-75
2021/06/04 04:27:17;;;;;;;43.72;22.80;;;17.30;99.90;;;;;;5014742;28;20026;-74
2021/06/04 04:29:43;;;;;;;39.50;22.13;;;17.20;99.90;;;;;;4997439;28;20156;-73
2021/06/04 04:32:15;;;;;;;38.80;22.38;;;17.30;99.90;;;;;;5002109;28;20117;-74
2021/06/04 04:34:43;;;;;;;38.85;21.55;;;17.40;99.90;;;;;;5002543;28;20029;-74
2021/06/04 04:37:09;;;;;;;43.25;23.52;;;17.50;99.90;;;;;;4995377;28;20113;-72
2021/06/04 04:39:38;;;;;;;44.05;23.23;;;17.50;99.90;;;;;;5012514;28;20030;-75
2021/06/04 04:42:07;;;;;;;47.25;24.50;;;17.60;99.90;;;;;;4997130;28;20509;-76
2021/06/04 04:44:37;;;;;;;42.08;24.15;;;17.70;99.90;;;;;;5005228;28;20033;-75
2021/06/04 04:47:05;;;;;;;40.92;23.10;;;17.70;99.90;;;;;;5001522;28;20022;-75
2021/06/04 04:49:31;;;;;;;43.17;23.77;;;17.60;99.90;;;;;;5001115;28;20030;-76
2021/06/04 04:51:57;;;;;;;48.42;25.30;;;17.50;99.90;;;;;;5004033;28;20026;-74
2021/06/04 04:54:22;;;;;;;46.97;23.77;;;17.50;99.90;;;;;;4996393;28;20506;-73
2021/06/04 04:56:49;;;;;;;39.33;22.25;;;17.50;99.90;;;;;;5001327;28;20037;-75
2021/06/04 04:59:17;;;;;;;40.75;22.73;;;17.60;99.90;;;;;;5007961;28;20100;-72
2021/06/04 05:01:43;;;;;;;36.10;21.42;;;17.60;99.90;;;;;;4989354;28;20034;-74
2021/06/04 05:04:09;;;;;;;37.50;21.60;;;17.70;99.90;;;;;;5002136;28;20035;-73
2021/06/04 05:06:36;;;;;;;36.70;20.63;;;17.60;99.90;;;;;;4997473;28;20048;-72
2021/06/04 05:09:05;;;;;;;33.88;20.23;;;17.90;99.90;;;;;;4996130;28;20052;-74
2021/06/04 05:11:31;;;;;;;40.03;21.70;;;18.20;99.90;;;;;;5001540;28;20504;-73
2021/06/04 05:13:57;;;;;;;32.25;19.83;;;18.30;99.90;;;;;;5006775;28;20099;-74
2021/06/04 05:16:22;;;;;;;36.45;21.02;;;18.40;99.90;;;;;;4996969;28;20030;-73
2021/06/04 05:18:48;;;;;;;38.90;20.42;;;18.60;99.90;;;;;;4993495;28;21780;-73
2021/06/04 05:21:17;;;;;;;37.80;20.80;;;18.80;99.90;;;;;;4998501;28;20049;-73
2021/06/04 05:23:46;;;;;;;30.20;19.98;;;18.90;99.90;;;;;;5004387;28;20506;-73
2021/06/04 05:26:11;;;;;;;31.35;18.25;;;19.00;99.90;;;;;;5020905;28;20074;-72
2021/06/04 05:28:45;;;;;;;35.42;21.35;;;19.10;99.90;;;;;;5021633;28;20029;-72
2021/06/04 05:31:12;;;;;;;33.47;20.98;;;19.20;99.90;;;;;;5031547;28;20027;-75
2021/06/04 05:33:40;;;;;;;38.78;20.25;;;19.20;99.90;;;;;;5028338;28;20104;-73
2021/06/04 05:36:09;;;;;;;35.80;19.48;;;19.20;99.90;;;;;;5032244;28;20030;-75
2021/06/04 05:38:34;;;;;;;47.58;19.00;;;19.30;99.90;;;;;;5015265;28;20052;-73
2021/06/04 05:41:00;;;;;;;41.47;18.95;;;19.50;99.90;;;;;;5008112;28;20644;-74
2021/06/04 05:43:30;;;;;;;37.45;21.50;;;19.80;99.90;;;;;;5011302;28;20630;-72
2021/06/04 05:45:56;;;;;;;30.27;19.33;;;20.00;99.90;;;;;;5003118;28;20074;-72
2021/06/04 05:48:23;;;;;;;39.72;21.40;;;20.00;99.90;;;;;;5008163;28;20027;-75
2021/06/04 05:50:52;;;;;;;36.97;19.70;;;20.10;99.90;;;;;;5008223;28;20710;-73
2021/06/04 05:53:22;;;;;;;29.25;17.45;;;19.90;99.90;;;;;;5007132;28;20037;-75
2021/06/04 05:55:47;;;;;;;32.28;18.67;;;20.20;99.90;;;;;;5004367;28;20037;-73
2021/06/04 05:58:16;;;;;;;37.55;18.38;;;20.30;99.90;;;;;;5005195;28;20034;-74
2021/06/04 06:00:45;;;;;;;39.53;20.00;;;20.50;99.90;;;;;;5005656;28;20023;-75
2021/06/04 06:03:16;;;;;;;33.88;18.15;;;20.60;99.90;;;;;;5002248;28;20021;-75
2021/06/04 06:05:42;;;;;;;34.15;18.80;;;20.70;99.90;;;;;;5000247;28;20026;-76
2021/06/04 06:08:09;;;;;;;28.25;16.17;;;20.80;99.90;;;;;;5005972;28;20396;-74
2021/06/04 06:10:34;;;;;;;27.58;14.65;;;20.70;99.90;;;;;;5004313;28;20503;-74
2021/06/04 06:13:00;;;;;;;30.63;16.23;;;20.70;99.90;;;;;;5011891;28;20026;-73
2021/06/04 06:15:28;;;;;;;31.38;13.90;;;20.90;99.90;;;;;;5013218;28;20033;-73
2021/06/04 06:17:53;;;;;;;30.13;15.55;;;21.00;99.90;;;;;;5010114;28;20049;-74
2021/06/04 06:20:23;;;;;;;30.63;15.27;;;21.30;99.90;;;;;;4992825;28;20018;-74
2021/06/04 06:22:50;;;;;;;31.90;16.83;;;21.10;99.90;;;;;;5005455;28;20025;-73
2021/06/04 06:25:19;;;;;;;26.10;14.70;;;21.20;99.90;;;;;;4992830;28;20472;-73
2021/06/04 06:27:45;;;;;;;29.40;16.58;;;21.40;99.90;;;;;;4992236;28;20065;-73
2021/06/04 06:30:18;;;;;;;36.45;15.23;;;21.60;99.90;;;;;;5010114;28;20081;-73
2021/06/04 06:32:46;;;;;;;33.05;15.77;;;21.90;99.90;;;;;;5012647;28;20056;-74
2021/06/04 06:35:12;;;;;;;29.08;15.45;;;21.90;99.90;;;;;;5004768;28;20503;-74
2021/06/04 06:37:39;;;;;;;32.53;16.13;;;22.20;99.90;;;;;;5001882;28;20026;-74
2021/06/04 06:40:07;;;;;;;23.23;15.73;;;22.20;99.90;;;;;;4993472;28;20046;-74
2021/06/04 06:42:33;;;;;;;27.73;16.58;;;22.00;99.90;;;;;;5011341;28;20014;-72
2021/06/04 06:44:59;;;;;;;32.88;15.90;;;22.10;99.90;;;;;;4998311;28;20022;-72
2021/06/04 06:47:24;;;;;;;23.58;14.27;;;22.20;99.90;;;;;;5012160;28;20010;-74
2021/06/04 06:49:51;;;;;;;33.38;15.98;;;22.50;99.90;;;;;;5000287;28;20029;-74
2021/06/04 06:52:19;;;;;;;23.95;14.77;;;22.50;99.90;;;;;;4996898;28;20053;-74
2021/06/04 06:54:44;;;;;;;24.10;14.65;;;22.70;99.90;;;;;;5010440;28;20062;-74
2021/06/04 06:57:10;;;;;;;22.90;13.18;;;22.90;99.90;;;;;;5003831;28;20034;-72
2021/06/04 06:59:35;;;;;;;25.00;15.20;;;23.10;99.90;;;;;;4994715;28;20081;-73
2021/06/04 07:02:06;;;;;;;21.67;14.52;;;22.80;99.90;;;;;;4996923;28;20507;-72
2021/06/04 07:04:32;;;;;;;31.58;16.08;;;22.60;99.90;;;;;;5015795;28;20021;-73
2021/06/04 07:06:58;;;;;;;31.02;15.80;;;22.50;99.90;;;;;;5001401;28;20032;-73
2021/06/04 07:09:24;;;;;;;28.77;15.57;;;22.70;99.90;;;;;;4992377;28;20523;-72
2021/06/04 07:11:54;;;;;;;22.40;14.90;;;22.80;99.90;;;;;;5007078;28;20020;-72
2021/06/04 07:14:23;;;;;;;26.52;16.17;;;22.40;99.90;;;;;;5013808;28;20514;-75
2021/06/04 07:16:50;;;;;;;28.73;16.75;;;22.50;99.90;;;;;;5000055;28;20026;-73
2021/06/04 07:19:16;;;;;;;24.83;15.27;;;21.90;99.90;;;;;;5001993;28;20053;-73
2021/06/04 07:21:43;;;;;;;27.42;16.42;;;22.00;99.90;;;;;;5014407;28;20025;-74
2021/06/04 07:24:13;;;;;;;31.85;15.73;;;22.50;99.90;;;;;;5006361;28;20064;-72
2021/06/04 07:26:40;;;;;;;24.00;16.13;;;22.50;99.90;;;;;;5001845;28;20402;-72
2021/06/04 07:29:06;;;;;;;25.65;15.10;;;22.80;99.90;;;;;;5003467;28;20045;-72
2021/06/04 07:31:32;;;;;;;28.60;15.10;;;22.80;99.90;;;;;;5010778;28;20026;-72
2021/06/04 07:33:58;;;;;;;29.98;16.02;;;23.00;99.90;;;;;;5007776;28;20029;-72
2021/06/04 07:36:30;;;;;;;21.83;13.07;;;22.70;99.90;;;;;;5001707;28;20027;-74
2021/06/04 07:38:56;;;;;;;28.42;14.93;;;22.90;99.90;;;;;;5005061;28;20026;-73
2021/06/04 07:41:23;;;;;;;25.08;16.35;;;23.20;99.90;;;;;;5004946;28;20448;-72
2021/06/04 07:43:49;;;;;;;34.63;16.42;;;23.10;99.90;;;;;;5004866;28;20067;-72
2021/06/04 07:46:17;;;;;;;31.95;14.65;;;22.70;99.90;;;;;;4997569;28;20068;-74
2021/06/04 07:48:43;;;;;;;41.22;16.40;;;22.90;99.90;;;;;;4994351;28;20108;-72
2021/06/04 07:51:12;;;;;;;34.80;16.15;;;23.10;99.90;;;;;;4995331;28;20026;-72
2021/06/04 07:53:41;;;;;;;22.08;14.77;;;23.20;99.90;;;;;;5008717;28;20022;-74
2021/06/04 07:56:09;;;;;;;33.55;15.98;;;22.90;99.90;;;;;;5002172;28;20510;-73
2021/06/04 07:58:35;;;;;;;23.08;16.08;;;22.80;99.90;;;;;;4997964;28;20396;-72
2021/06/04 08:01:03;;;;;;;29.70;14.75;;;22.40;99.90;;;;;;4999413;28;20511;-71
2021/06/04 08:03:30;;;;;;;24.42;14.38;;;22.50;99.90;;;;;;5007507;28;20017;-72
2021/06/04 08:05:56;;;;;;;30.05;15.65;;;22.50;99.90;;;;;;5004463;28;20026;-73
2021/06/04 08:08:22;;;;;;;27.80;15.88;;;22.70;99.90;;;;;;4997097;28;20033;-74
2021/06/04 08:10:50;;;;;;;27.38;15.50;;;22.70;99.90;;;;;;5009975;28;20030;-73
2021/06/04 08:13:19;;;;;;;25.60;15.45;;;22.70;99.90;;;;;;5008224;28;20473;-73
2021/06/04 08:15:52;;;;;;;30.55;15.55;;;23.20;99.90;;;;;;5009559;28;20026;-71
2021/06/04 08:18:21;;;;;;;32.78;18.50;;;23.30;99.90;;;;;;5005517;28;20050;-73
2021/06/04 08:20:48;;;;;;;30.83;17.95;;;23.00;99.90;;;;;;4990405;28;20034;-73
2021/06/04 08:23:17;;;;;;;28.15;15.15;;;22.70;99.90;;;;;;5006991;28;20045;-72
2021/06/04 08:25:48;;;;;;;27.27;16.00;;;23.10;99.90;;;;;;5001589;28;20022;-72
2021/06/04 08:28:13;;;;;;;32.90;18.08;;;23.40;99.90;;;;;;5004845;28;20033;-73
2021/06/04 08:30:40;;;;;;;24.38;15.70;;;23.60;99.90;;;;;;5001641;28;20035;-73
2021/06/04 08:33:06;;;;;;;24.75;15.90;;;23.80;99.90;;;;;;5002879;28;20510;-73
2021/06/04 08:35:32;;;;;;;27.30;17.15;;;23.80;99.90;;;;;;5003419;28;20369;-73
2021/06/04 08:38:00;;;;;;;30.25;16.88;;;23.80;99.90;;;;;;4989548;28;20110;-75
2021/06/04 08:40:37;;;;;;;27.38;15.98;;;23.40;99.90;;;;;;4993045;28;20033;-72
2021/06/04 08:43:44;;;;;;;28.73;17.15;;;23.50;99.90;;;;;;5009535;28;20095;-73
2021/06/04 08:46:18;;;;;;;23.95;15.60;;;23.70;99.90;;;;;;4999764;28;20026;-72
2021/06/04 08:49:04;;;;;;;29.58;17.60;;;23.50;99.90;;;;;;5003784;28;20110;-73
2021/06/04 08:51:36;;;;;;;29.48;16.48;;;23.20;99.90;;;;;;5001449;28;20036;-71
2021/06/04 08:54:39;;;;;;;27.92;16.50;;;23.50;99.90;;;;;;4991480;28;20056;-72
2021/06/04 08:57:42;;;;;;;26.40;14.90;;;23.70;99.90;;;;;;5006347;28;20018;-73
2021/06/04 09:00:21;;;;;;;28.90;15.95;;;23.90;99.90;;;;;;4999594;28;20487;-72
2021/06/04 09:02:59;;;;;;;23.58;15.00;;;23.70;99.90;;;;;;5000939;28;20026;-73
2021/06/04 09:05:34;;;;;;;29.65;16.20;;;23.30;99.90;;;;;;4995723;28;20018;-71
2021/06/04 09:08:00;;;;;;;23.35;14.93;;;23.10;99.90;;;;;;5007910;28;20067;-73
2021/06/04 09:11:02;;;;;;;23.55;14.93;;;23.40;99.90;;;;;;4999277;28;20030;-73
2021/06/04 09:13:32;;;;;;;21.52;14.15;;;23.90;99.90;;;;;;4976291;28;20072;-73
2021/06/04 09:16:19;;;;;;;23.30;13.13;;;24.00;99.90;;;;;;5008722;28;20065;-73
2021/06/04 09:19:05;;;;;;;24.02;13.93;;;24.10;99.90;;;;;;5010029;28;20077;-74
2021/06/04 09:21:33;;;;;;;21.20;13.30;;;24.30;99.90;;;;;;4966982;28;20069;-72
2021/06/04 09:24:02;;;;;;;22.98;12.75;;;23.70;99.90;;;;;;5002560;28;20074;-74
2021/06/04 09:26:30;;;;;;;22.25;11.77;;;23.00;99.90;;;;;;5022378;28;20007;-74
2021/06/04 09:29:02;;;;;;;19.33;11.70;;;23.10;99.90;;;;;;5015011;28;20026;-74
2021/06/04 09:31:45;;;;;;;19.48;12.20;;;23.50;99.90;;;;;;5013023;28;20073;-73
2021/06/04 09:34:24;;;;;;;21.17;13.25;;;23.60;99.90;;;;;;5027110;28;20090;-74
2021/06/04 09:37:11;;;;;;;23.45;12.02;;;23.30;99.90;;;;;;5029165;28;20086;-74
2021/06/04 09:39:42;;;;;;;19.17;11.30;;;23.20;99.90;;;;;;5010768;28;20065;-71
2021/06/04 09:42:28;;;;;;;16.80;10.80;;;23.70;99.90;;;;;;5006510;28;20042;-74
2021/06/04 09:44:59;;;;;;;21.98;11.02;;;24.10;99.90;;;;;;5005180;28;20030;-74
2021/06/04 09:47:37;;;;;;;18.88;12.10;;;23.90;99.90;;;;;;5033949;28;20041;-74
2021/06/04 09:50:27;;;;;;;16.48;10.88;;;23.60;99.90;;;;;;5017794;28;20045;-76
2021/06/04 09:53:09;;;;;;;15.88;9.10;;;23.60;99.90;;;;;;5010806;28;20064;-74
2021/06/04 09:55:39;;;;;;;15.77;9.77;;;23.50;99.90;;;;;;4998543;28;20508;-73
2021/06/04 09:58:07;;;;;;;20.80;10.75;;;23.70;99.90;;;;;;4996301;28;20026;-74
2021/06/04 10:00:36;;;;;;;19.02;11.35;;;23.90;99.90;;;;;;4993985;28;20030;-72
2021/06/04 10:03:08;;;;;;;18.15;13.27;;;24.10;99.90;;;;;;4992495;28;20503;-71
2021/06/04 10:05:35;;;;;;;30.45;14.80;;;24.40;99.90;;;;;;4993675;28;20085;-72
2021/06/04 10:08:19;;;;;;;24.42;16.45;;;24.40;99.90;;;;;;5002719;28;20039;-73
2021/06/04 10:11:01;;;;;;;22.90;15.23;;;23.80;99.90;;;;;;5015926;28;20015;-72
2021/06/04 10:13:35;;;;;;;24.47;15.40;;;23.60;99.90;;;;;;5026697;28;20038;-71
2021/06/04 10:16:03;;;;;;;25.63;15.75;;;23.90;99.90;;;;;;5017288;28;20022;-73
2021/06/04 10:18:47;;;;;;;27.73;16.65;;;24.10;99.90;;;;;;5008254;28;20053;-74
2021/06/04 10:21:32;;;;;;;25.88;15.82;;;23.60;99.90;;;;;;4997659;28;20034;-69
2021/06/04 10:24:01;;;;;;;25.45;14.88;;;23.60;99.90;;;;;;5001856;28;20022;-74
2021/06/04 10:26:32;;;;;;;24.85;13.77;;;23.70;99.90;;;;;;4994633;28;20014;-71
2021/06/04 10:29:11;;;;;;;21.92;13.45;;;23.80;99.90;;;;;;4999046;28;20030;-71
2021/06/04 10:31:51;;;;;;;19.17;12.90;;;24.20;99.90;;;;;;4993388;28;20030;-74
2021/06/04 10:34:44;;;;;;;20.13;11.75;;;24.40;99.90;;;;;;5007005;28;20033;-73
2021/06/04 10:37:21;;;;;;;17.20;10.77;;;24.70;99.90;;;;;;4999551;28;20050;-73
2021/06/04 10:39:54;;;;;;;19.35;11.48;;;24.90;99.90;;;;;;5000093;28;20480;-73
2021/06/04 10:42:37;;;;;;;21.75;12.20;;;24.70;99.90;;;;;;5013535;28;20466;-74
2021/06/04 10:45:18;;;;;;;21.92;14.57;;;24.80;99.90;;;;;;5003576;28;20023;-73
2021/06/04 10:48:05;;;;;;;22.88;14.75;;;24.20;99.90;;;;;;4998738;28;20343;-71
2021/06/04 10:50:40;;;;;;;20.65;14.65;;;24.00;99.90;;;;;;5007454;28;20022;-72
2021/06/04 10:53:13;;;;;;;23.95;16.58;;;24.10;99.90;;;;;;5011346;28;20395;-74
2021/06/04 10:56:16;;;;;;;26.27;15.45;;;24.10;99.90;;;;;;5008751;28;20018;-73
2021/06/04 10:59:10;;;;;;;26.70;16.33;;;24.50;99.90;;;;;;5002651;28;20022;-74
2021/06/04 11:02:13;;;;;;;24.38;14.05;;;24.50;99.90;;;;;;5010845;28;20247;-71
2021/06/04 11:05:16;;;;;;;26.23;14.05;;;24.60;99.90;;;;;;5036267;28;20040;-74
2021/06/04 11:08:08;;;;;;;19.95;11.98;;;25.20;99.90;;;;;;5013025;28;20019;-74
2021/06/04 11:10:47;;;;;;;16.83;12.50;;;25.30;99.90;;;;;;5025297;28;20018;-73
2021/06/04 11:13:50;;;;;;;20.25;12.30;;;25.60;99.90;;;;;;5017520;28;20029;-73
2021/06/04 11:17:00;;;;;;;16.35;9.77;;;25.20;99.90;;;;;;5004530;28;20054;-72
2021/06/04 11:19:47;;;;;;;17.60;11.18;;;24.90;99.90;;;;;;5001362;28;20080;-71
2021/06/04 11:22:48;;;;;;;16.85;9.82;;;24.50;99.90;;;;;;4993851;28;20027;-74
2021/06/04 11:25:26;;;;;;;13.20;8.20;;;24.60;99.90;;;;;;5001429;28;20624;-73
2021/06/04 11:28:05;;;;;;;17.02;11.35;;;24.70;99.90;;;;;;5015560;28;20093;-72
2021/06/04 11:30:32;;;;;;;16.00;9.90;;;25.20;99.90;;;;;;5012256;28;20072;-72
2021/06/04 11:33:05;;;;;;;13.70;9.75;;;25.40;99.90;;;;;;5014013;28;20395;-72
2021/06/04 11:35:38;;;;;;;16.70;9.00;;;25.60;99.90;;;;;;5025466;28;20032;-71
2021/06/04 11:38:34;;;;;;;20.65;9.77;;;26.10;99.90;;;;;;5031102;28;20026;-73
2021/06/04 11:41:10;;;;;;;12.35;9.00;;;26.20;99.40;;;;;;5010710;28;20030;-74
2021/06/04 11:43:38;;;;;;;14.48;9.02;;;26.40;98.70;;;;;;5006673;28;20026;-72
2021/06/04 11:46:32;;;;;;;16.05;10.32;;;26.40;99.00;;;;;;4993695;28;20037;-73
2021/06/04 11:49:08;;;;;;;15.32;10.35;;;26.10;99.30;;;;;;5008225;28;20434;-72
2021/06/04 11:51:47;;;;;;;16.30;9.70;;;25.90;99.60;;;;;;5002445;28;20019;-74
2021/06/04 11:54:27;;;;;;;12.65;9.25;;;25.80;99.90;;;;;;5000657;28;20105;-74
2021/06/04 11:57:00;;;;;;;15.88;9.02;;;25.60;99.90;;;;;;5014765;28;20025;-73
2021/06/04 11:59:47;;;;;;;20.95;10.23;;;26.00;99.90;;;;;;5023699;28;20022;-73
2021/06/04 12:02:47;;;;;;;16.35;11.00;;;26.20;99.90;;;;;;5017728;28;20026;-74
2021/06/04 12:05:39;;;;;;;18.42;9.98;;;25.70;99.90;;;;;;4994175;28;20026;-74
2021/06/04 12:08:20;;;;;;;13.75;9.45;;;25.60;99.90;;;;;;5016524;28;20022;-74
2021/06/04 12:10:51;;;;;;;13.00;7.45;;;25.70;99.90;;;;;;5017145;28;20086;-74
2021/06/04 12:13:49;;;;;;;18.45;9.85;;;26.10;99.90;;;;;;5005163;28;20068;-73
2021/06/04 12:19:07;;;;;;;15.35;9.07;;;26.20;99.90;;;;;;5004150;28;20057;-72
2021/06/04 12:21:42;;;;;;;17.50;9.93;;;26.10;99.60;;;;;;4997260;28;20080;-73
2021/06/04 12:24:16;;;;;;;8.55;6.80;;;25.90;99.70;;;;;;4995678;28;20050;-74
2021/06/04 12:27:01;;;;;;;16.52;8.57;;;26.30;99.90;;;;;;5009805;28;20121;-72
2021/06/04 12:29:26;;;;;;;15.30;8.68;;;26.50;98.10;;;;;;5008213;28;20109;-73
2021/06/04 12:32:12;;;;;;;12.88;8.10;;;26.40;98.60;;;;;;5008940;28;20089;-72
2021/06/04 12:34:38;;;;;;;14.55;7.97;;;26.40;99.10;;;;;;5001544;28;20037;-74
2021/06/04 12:37:19;;;;;;;11.63;8.05;;;26.40;99.50;;;;;;4991274;28;20026;-72
2021/06/04 12:39:50;;;;;;;12.95;7.22;;;26.80;98.80;;;;;;4997869;28;20018;-73
2021/06/04 12:42:24;;;;;;;14.87;9.00;;;26.70;97.40;;;;;;4998855;28;20022;-73
2021/06/04 12:45:10;;;;;;;11.00;8.02;;;26.60;98.20;;;;;;5010196;28;20377;-72
2021/06/04 12:48:16;;;;;;;13.38;8.07;;;26.60;97.50;;;;;;5006979;28;20056;-76
2021/06/04 12:50:46;;;;;;;11.32;6.50;;;26.80;97.60;;;;;;4997021;28;20122;-74
2021/06/04 12:53:17;;;;;;;10.27;8.10;;;27.30;97.10;;;;;;4997099;28;20404;-74
2021/06/04 12:55:47;;;;;;;9.10;6.35;;;27.60;94.40;;;;;;5000739;28;20030;-74
2021/06/04 12:58:32;;;;;;;11.32;6.35;;;27.50;95.00;;;;;;5005005;28;20077;-74
2021/06/04 13:01:16;;;;;;;12.10;5.90;;;27.50;95.70;;;;;;4998247;28;20094;-73
2021/06/04 13:04:01;;;;;;;7.60;5.70;;;27.10;94.70;;;;;;5007092;28;20022;-75
2021/06/04 13:06:36;;;;;;;13.85;8.07;;;27.20;94.50;;;;;;4999836;28;20045;-72